createdAt,value
2018-09-15T00:00:38.130Z,17.47
2018-09-15T00:03:07.222Z,17.42
2018-09-15T00:05:35.957Z,17.46
2018-09-15T00:08:04.711Z,17.52
2018-09-15T00:10:33.504Z,17.51
2018-09-15T00:13:02.314Z,17.51
2018-09-15T00:15:31.047Z,17.59
2018-09-15T00:18:01.257Z,17.50
2018-09-15T00:20:29.981Z,17.47
2018-09-15T00:22:58.771Z,17.53
2018-09-15T00:25:27.463Z,17.57
2018-09-15T00:27:56.204Z,17.51
2018-09-15T00:30:24.947Z,17.64
2018-09-15T00:32:53.704Z,17.51
2018-09-15T00:35:22.474Z,17.40
2018-09-15T00:37:51.434Z,17.44
2018-09-15T00:40:20.179Z,17.51
2018-09-15T00:42:48.911Z,17.59
2018-09-15T00:45:17.671Z,17.53
2018-09-15T00:47:46.358Z,17.50
2018-09-15T00:50:15.150Z,17.40
2018-09-15T00:52:43.884Z,17.27
2018-09-15T00:55:12.639Z,17.25
2018-09-15T00:57:41.306Z,17.25
2018-09-15T01:00:10.036Z,17.21
2018-09-15T01:02:38.736Z,17.18
2018-09-15T01:05:07.459Z,17.20
2018-09-15T01:07:36.193Z,17.19
2018-09-15T01:10:05.025Z,17.11
2018-09-15T01:12:33.727Z,17.08
2018-09-15T01:15:02.407Z,17.01
2018-09-15T01:17:31.136Z,17.09
2018-09-15T01:19:59.891Z,17.07
2018-09-15T01:22:28.567Z,17.17
2018-09-15T01:24:57.282Z,17.16
2018-09-15T01:27:25.936Z,17.16
2018-09-15T01:30:01.330Z,17.16
2018-09-15T01:32:30.032Z,17.05
2018-09-15T01:34:58.730Z,17.04
2018-09-15T01:37:27.437Z,17.15
2018-09-15T01:39:56.130Z,17.05
2018-09-15T01:42:25.414Z,17.04
2018-09-15T01:44:54.086Z,17.04
2018-09-15T01:47:22.773Z,17.06
2018-09-15T01:49:51.558Z,17.02
2018-09-15T01:52:20.290Z,17.02
2018-09-15T01:54:48.977Z,17.06
2018-09-15T01:57:17.617Z,17.06
2018-09-15T01:59:46.295Z,17.05
2018-09-15T02:02:15.005Z,17.01
2018-09-15T02:04:43.687Z,17.05
2018-09-15T02:07:12.380Z,17.13
2018-09-15T02:09:41.054Z,17.10
2018-09-15T02:12:09.850Z,17.14
2018-09-15T02:14:38.725Z,17.08
2018-09-15T02:17:07.439Z,16.96
2018-09-15T02:19:36.099Z,16.89
2018-09-15T02:22:04.833Z,17.00
2018-09-15T02:24:34.306Z,16.90
2018-09-15T02:27:03.025Z,16.86
2018-09-15T02:29:31.728Z,16.94
2018-09-15T02:32:00.453Z,16.86
2018-09-15T02:34:29.119Z,16.79
2018-09-15T02:36:57.797Z,16.65
2018-09-15T02:39:26.590Z,16.61
2018-09-15T02:41:55.301Z,16.62
2018-09-15T02:44:23.990Z,16.63
2018-09-15T02:46:52.694Z,16.71
2018-09-15T02:49:21.378Z,16.77
2018-09-15T02:51:50.130Z,16.81
2018-09-15T02:54:18.879Z,16.82
2018-09-15T02:56:47.559Z,16.73
2018-09-15T02:59:16.266Z,16.69
2018-09-15T03:01:44.966Z,16.58
2018-09-15T03:04:13.691Z,16.52
2018-09-15T03:06:42.378Z,16.36
2018-09-15T03:09:12.376Z,16.22
2018-09-15T03:11:41.093Z,16.35
2018-09-15T03:14:09.926Z,16.46
2018-09-15T03:16:39.100Z,16.45
2018-09-15T03:19:07.777Z,16.41
2018-09-15T03:21:36.451Z,16.31
2018-09-15T03:24:05.256Z,16.33
2018-09-15T03:26:33.895Z,16.30
2018-09-15T03:29:02.569Z,16.27
2018-09-15T03:31:31.246Z,16.31
2018-09-15T03:33:59.910Z,16.40
2018-09-15T03:36:28.622Z,16.41
2018-09-15T03:38:57.292Z,16.39
2018-09-15T03:41:26.000Z,16.37
2018-09-15T03:43:54.678Z,16.40
2018-09-15T03:46:23.384Z,16.49
2018-09-15T03:48:52.055Z,16.53
2018-09-15T03:51:20.818Z,16.53
2018-09-15T03:53:49.482Z,16.62
2018-09-15T03:56:18.194Z,16.38
2018-09-15T03:58:46.895Z,16.38
2018-09-15T04:01:15.558Z,16.44
2018-09-15T04:03:44.244Z,16.51
2018-09-15T04:06:12.959Z,16.62
2018-09-15T04:08:41.626Z,16.56
2018-09-15T04:11:10.300Z,16.60
2018-09-15T04:13:38.993Z,16.56
2018-09-15T04:16:07.670Z,16.72
2018-09-15T04:18:36.342Z,16.56
2018-09-15T04:21:05.042Z,16.56
2018-09-15T04:23:33.712Z,16.77
2018-09-15T04:26:02.409Z,16.80
2018-09-15T04:28:31.118Z,16.80
2018-09-15T04:30:59.830Z,16.75
2018-09-15T04:33:28.496Z,16.83
2018-09-15T04:35:57.197Z,16.92
2018-09-15T04:38:25.956Z,16.81
2018-09-15T04:40:54.606Z,16.79
2018-09-15T04:43:23.355Z,16.80
2018-09-15T04:45:52.179Z,16.87
2018-09-15T04:48:20.886Z,16.89
2018-09-15T04:50:49.599Z,16.95
2018-09-15T04:53:18.344Z,17.09
2018-09-15T04:55:47.389Z,17.10
2018-09-15T04:58:16.078Z,17.32
2018-09-15T05:00:44.848Z,17.33
2018-09-15T05:03:13.647Z,17.34
2018-09-15T05:05:42.331Z,17.30
2018-09-15T05:08:11.004Z,17.31
2018-09-15T05:10:39.701Z,17.37
2018-09-15T05:13:08.527Z,17.20
2018-09-15T05:15:37.582Z,17.18
2018-09-15T05:18:06.421Z,17.14
2018-09-15T05:20:35.157Z,17.05
2018-09-15T05:23:03.844Z,16.98
2018-09-15T05:25:32.552Z,16.96
2018-09-15T05:28:01.261Z,17.00
2018-09-15T05:30:30.025Z,16.94
2018-09-15T05:32:58.786Z,16.95
2018-09-15T05:35:27.594Z,16.89
2018-09-15T05:37:56.330Z,17.06
2018-09-15T05:40:25.207Z,17.04
2018-09-15T05:42:53.983Z,17.12
2018-09-15T05:45:22.666Z,17.11
2018-09-15T05:47:51.439Z,17.18
2018-09-15T05:50:20.167Z,17.21
2018-09-15T05:52:48.928Z,17.25
2018-09-15T05:55:17.678Z,17.18
2018-09-15T05:57:46.435Z,17.34
2018-09-15T06:00:15.280Z,17.51
2018-09-15T06:02:44.034Z,17.46
2018-09-15T06:05:12.768Z,17.41
2018-09-15T06:07:41.583Z,17.43
2018-09-15T06:10:10.375Z,17.45
2018-09-15T06:12:39.095Z,17.46
2018-09-15T06:15:07.898Z,17.47
2018-09-15T06:17:36.823Z,17.45
2018-09-15T06:20:05.907Z,17.56
2018-09-15T06:22:34.605Z,17.56
2018-09-15T06:25:03.419Z,17.68
2018-09-15T06:27:33.717Z,17.83
2018-09-15T06:30:02.550Z,18.13
2018-09-15T06:32:31.449Z,18.23
2018-09-15T06:35:00.204Z,18.25
2018-09-15T06:37:28.927Z,18.50
2018-09-15T06:39:57.651Z,18.58
2018-09-15T06:42:26.399Z,18.67
2018-09-15T06:44:55.121Z,18.73
2018-09-15T06:47:23.904Z,18.82
2018-09-15T06:49:52.710Z,18.80
2018-09-15T06:52:21.452Z,18.89
2018-09-15T06:54:50.201Z,18.93
2018-09-15T06:57:19.023Z,18.97
2018-09-15T06:59:47.771Z,18.89
2018-09-15T07:02:17.493Z,18.82
2018-09-15T07:04:46.228Z,18.90
2018-09-15T07:07:15.002Z,19.09
2018-09-15T07:09:43.771Z,19.03
2018-09-15T07:12:12.525Z,18.90
2018-09-15T07:14:41.323Z,18.95
2018-09-15T07:17:10.058Z,18.83
2018-09-15T07:19:38.774Z,18.97
2018-09-15T07:22:07.654Z,19.08
2018-09-15T07:24:36.519Z,19.21
2018-09-15T07:27:05.276Z,19.26
2018-09-15T07:29:34.321Z,19.47
2018-09-15T07:32:03.137Z,19.37
2018-09-15T07:34:31.907Z,19.40
2018-09-15T07:37:00.708Z,19.62
2018-09-15T07:39:29.575Z,19.73
2018-09-15T07:41:58.311Z,19.88
2018-09-15T07:44:27.036Z,19.99
2018-09-15T07:46:55.782Z,20.03
2018-09-15T07:49:24.524Z,20.26
2018-09-15T07:51:53.321Z,20.63
2018-09-15T07:54:22.110Z,20.96
2018-09-15T07:56:50.883Z,21.02
2018-09-15T07:59:19.807Z,21.21
2018-09-15T08:01:48.703Z,21.21
2018-09-15T08:04:17.535Z,21.18
2018-09-15T08:06:46.242Z,21.18
2018-09-15T08:09:15.078Z,21.14
2018-09-15T08:11:43.832Z,21.62
2018-09-15T08:14:12.766Z,21.49
2018-09-15T08:16:41.599Z,21.50
2018-09-15T08:19:10.363Z,21.55
2018-09-15T08:21:39.346Z,21.42
2018-09-15T08:24:08.383Z,21.43
2018-09-15T08:26:37.184Z,21.47
2018-09-15T08:29:05.789Z,21.68
2018-09-15T08:31:34.504Z,21.59
2018-09-15T08:34:03.262Z,21.80
2018-09-15T08:36:31.996Z,21.71
2018-09-15T08:39:06.043Z,21.77
2018-09-15T08:41:34.750Z,21.73
2018-09-15T08:44:03.707Z,21.74
2018-09-15T08:46:37.585Z,21.67
2018-09-15T08:49:06.692Z,21.91
2018-09-15T08:51:35.419Z,22.26
2018-09-15T08:54:04.111Z,22.80
2018-09-15T08:56:32.831Z,22.83
2018-09-15T08:59:01.714Z,22.89
2018-09-15T09:01:30.708Z,22.82
2018-09-15T09:03:59.413Z,22.72
2018-09-15T09:06:28.190Z,22.96
2018-09-15T09:08:56.944Z,22.98
2018-09-15T09:11:25.740Z,23.07
2018-09-15T09:13:54.530Z,23.42
2018-09-15T09:16:23.381Z,23.76
2018-09-15T09:18:52.105Z,23.21
2018-09-15T09:21:20.842Z,23.62
2018-09-15T09:23:49.611Z,23.10
2018-09-15T09:26:18.420Z,23.28
2018-09-15T09:28:47.086Z,23.58
2018-09-15T09:31:15.844Z,23.93
2018-09-15T09:33:44.714Z,23.70
2018-09-15T09:36:13.518Z,23.77
2018-09-15T09:38:42.239Z,23.81
2018-09-15T09:41:11.020Z,23.48
2018-09-15T09:43:39.801Z,23.26
2018-09-15T09:46:08.572Z,23.40
2018-09-15T09:48:37.292Z,23.29
2018-09-15T09:51:06.322Z,23.26
2018-09-15T09:53:35.125Z,23.32
2018-09-15T09:56:03.849Z,23.14
2018-09-15T09:58:32.612Z,22.95
2018-09-15T10:01:06.474Z,23.19
2018-09-15T10:03:35.233Z,22.94
2018-09-15T10:06:03.924Z,22.85
2018-09-15T10:08:35.508Z,22.87
2018-09-15T10:11:04.218Z,22.62
2018-09-15T10:13:33.031Z,22.95
2018-09-15T10:16:01.862Z,23.03
2018-09-15T10:18:30.499Z,23.33
2018-09-15T10:20:59.219Z,23.26
2018-09-15T10:23:28.006Z,23.26
2018-09-15T10:25:56.800Z,23.40
2018-09-15T10:28:25.576Z,23.49
2018-09-15T10:30:54.294Z,23.85
2018-09-15T10:33:23.000Z,23.57
2018-09-15T10:35:51.894Z,23.56
2018-09-15T10:38:20.717Z,23.58
2018-09-15T10:40:49.719Z,24.11
2018-09-15T10:43:18.530Z,24.19
2018-09-15T10:45:47.387Z,24.27
2018-09-15T10:48:16.110Z,24.18
2018-09-15T10:50:44.832Z,24.44
2018-09-15T10:53:13.534Z,24.91
2018-09-15T10:55:42.225Z,24.82
2018-09-15T10:58:10.971Z,24.52
2018-09-15T11:00:39.653Z,24.62
2018-09-15T11:03:08.418Z,24.56
2018-09-15T11:05:37.134Z,24.64
2018-09-15T11:08:05.968Z,25.01
2018-09-15T11:10:34.671Z,24.81
2018-09-15T11:13:03.385Z,25.11
2018-09-15T11:15:32.233Z,24.40
2018-09-15T11:18:01.055Z,24.48
2018-09-15T11:20:29.882Z,24.54
2018-09-15T11:22:58.594Z,24.58
2018-09-15T11:25:27.328Z,24.62
2018-09-15T11:27:56.122Z,24.87
2018-09-15T11:30:24.880Z,24.72
2018-09-15T11:32:53.719Z,24.86
2018-09-15T11:35:22.482Z,24.94
2018-09-15T11:37:51.248Z,25.10
2018-09-15T11:40:19.965Z,25.29
2018-09-15T11:42:48.686Z,24.94
2018-09-15T11:45:17.440Z,25.11
2018-09-15T11:47:46.220Z,25.42
2018-09-15T11:50:15.649Z,25.24
2018-09-15T11:52:44.435Z,25.41
2018-09-15T11:55:13.299Z,25.36
2018-09-15T11:57:42.068Z,25.25
2018-09-15T12:00:10.915Z,24.91
2018-09-15T12:02:39.715Z,25.01
2018-09-15T12:05:08.474Z,25.30
2018-09-15T12:07:37.242Z,25.17
2018-09-15T12:10:06.020Z,25.03
2018-09-15T12:12:34.746Z,24.82
2018-09-15T12:15:03.496Z,24.74
2018-09-15T12:17:32.200Z,24.99
2018-09-15T12:20:00.971Z,24.85
2018-09-15T12:22:29.674Z,25.00
2018-09-15T12:24:58.727Z,25.27
2018-09-15T12:27:27.428Z,25.77
2018-09-15T12:29:56.207Z,25.71
2018-09-15T12:32:24.947Z,25.40
2018-09-15T12:34:53.691Z,25.42
2018-09-15T12:37:22.508Z,25.33
2018-09-15T12:39:51.299Z,25.11
2018-09-15T12:42:20.110Z,25.05
2018-09-15T12:44:48.845Z,25.03
2018-09-15T12:47:17.671Z,25.14
2018-09-15T12:49:46.374Z,25.17
2018-09-15T12:52:15.252Z,25.09
2018-09-15T12:54:44.031Z,25.24
2018-09-15T12:57:13.426Z,25.26
2018-09-15T12:59:42.246Z,24.95
2018-09-15T13:02:11.341Z,24.82
2018-09-15T13:04:40.094Z,25.32
2018-09-15T13:07:08.882Z,25.43
2018-09-15T13:09:37.704Z,25.23
2018-09-15T13:12:06.593Z,25.31
2018-09-15T13:14:35.239Z,25.32
2018-09-15T13:17:04.146Z,25.27
2018-09-15T13:19:32.902Z,25.40
2018-09-15T13:22:02.053Z,25.90
2018-09-15T13:24:30.794Z,26.56
2018-09-15T13:26:59.635Z,26.63
2018-09-15T13:29:28.405Z,26.28
2018-09-15T13:31:57.201Z,25.81
2018-09-15T13:34:25.960Z,25.50
2018-09-15T13:36:54.658Z,25.36
2018-09-15T13:39:23.396Z,25.51
2018-09-15T13:41:52.227Z,25.57
2018-09-15T13:44:20.910Z,26.05
2018-09-15T13:46:49.733Z,25.97
2018-09-15T13:49:18.368Z,25.33
2018-09-15T13:51:47.179Z,24.96
2018-09-15T13:54:15.925Z,24.91
2018-09-15T13:56:44.675Z,24.78
2018-09-15T13:59:13.431Z,24.45
2018-09-15T14:01:42.207Z,24.06
2018-09-15T14:04:10.994Z,24.03
2018-09-15T14:06:39.779Z,23.60
2018-09-15T14:09:10.280Z,23.28
2018-09-15T14:11:39.360Z,23.39
2018-09-15T14:14:08.402Z,23.11
2018-09-15T14:16:37.201Z,23.10
2018-09-15T14:19:06.089Z,23.41
2018-09-15T14:21:34.831Z,23.66
2018-09-15T14:24:03.675Z,23.83
2018-09-15T14:26:32.450Z,23.95
2018-09-15T14:29:01.150Z,24.24
2018-09-15T14:31:29.891Z,24.27
2018-09-15T14:33:58.623Z,23.98
2018-09-15T14:36:27.339Z,23.85
2018-09-15T14:38:56.060Z,23.87
2018-09-15T14:41:24.827Z,23.64
2018-09-15T14:43:53.678Z,23.28
2018-09-15T14:46:22.414Z,23.08
2018-09-15T14:48:51.346Z,23.20
2018-09-15T14:51:20.026Z,23.21
2018-09-15T14:53:48.812Z,23.15
2018-09-15T14:56:17.533Z,23.24
2018-09-15T14:58:46.326Z,23.38
2018-09-15T15:01:15.022Z,23.67
2018-09-15T15:03:43.795Z,23.94
2018-09-15T15:06:12.739Z,24.94
2018-09-15T15:08:41.487Z,26.34
2018-09-15T15:11:10.396Z,26.57
2018-09-15T15:13:39.170Z,28.12
2018-09-15T15:16:07.958Z,29.26
2018-09-15T15:18:36.726Z,29.96
2018-09-15T15:21:05.429Z,29.84
2018-09-15T15:23:35.095Z,29.89
2018-09-15T15:26:03.931Z,30.66
2018-09-15T15:28:32.609Z,31.23
2018-09-15T15:31:01.353Z,30.76
2018-09-15T15:33:30.125Z,30.89
2018-09-15T15:35:58.834Z,30.70
2018-09-15T15:38:27.542Z,30.73
2018-09-15T15:40:56.286Z,30.32
2018-09-15T15:43:25.042Z,30.31
2018-09-15T15:45:53.782Z,29.94
2018-09-15T15:48:22.486Z,28.94
2018-09-15T15:50:51.241Z,28.52
2018-09-15T15:53:19.944Z,28.08
2018-09-15T15:55:48.841Z,27.36
2018-09-15T15:58:17.572Z,26.83
2018-09-15T16:00:46.267Z,26.66
2018-09-15T16:03:15.186Z,27.21
2018-09-15T16:05:43.971Z,26.69
2018-09-15T16:08:12.742Z,26.08
2018-09-15T16:10:41.554Z,25.13
2018-09-15T16:13:10.238Z,24.56
2018-09-15T16:15:38.981Z,24.26
2018-09-15T16:18:07.823Z,23.93
2018-09-15T16:20:36.534Z,23.59
2018-09-15T16:23:05.273Z,23.43
2018-09-15T16:25:34.024Z,23.21
2018-09-15T16:28:02.691Z,23.02
2018-09-15T16:30:31.503Z,22.74
2018-09-15T16:33:00.205Z,22.63
2018-09-15T16:35:28.909Z,22.42
2018-09-15T16:37:57.659Z,22.26
2018-09-15T16:40:26.335Z,22.19
2018-09-15T16:42:55.071Z,22.10
2018-09-15T16:45:23.811Z,22.20
2018-09-15T16:47:52.625Z,22.15
2018-09-15T16:50:21.358Z,22.03
2018-09-15T16:52:50.104Z,21.93
2018-09-15T16:55:19.071Z,21.92
2018-09-15T16:57:47.804Z,21.73
2018-09-15T17:00:16.568Z,21.68
2018-09-15T17:02:45.442Z,21.50
2018-09-15T17:05:14.188Z,21.56
2018-09-15T17:07:43.056Z,21.42
2018-09-15T17:10:11.857Z,21.29
2018-09-15T17:12:40.586Z,21.31
2018-09-15T17:15:09.348Z,21.32
2018-09-15T17:17:38.108Z,21.16
2018-09-15T17:20:06.946Z,21.20
2018-09-15T17:22:35.721Z,21.22
2018-09-15T17:25:04.437Z,21.10
2018-09-15T17:27:33.212Z,21.04
2018-09-15T17:30:01.954Z,20.90
2018-09-15T17:32:30.653Z,20.67
2018-09-15T17:34:59.368Z,20.50
2018-09-15T17:37:28.085Z,20.67
2018-09-15T17:39:56.897Z,20.56
2018-09-15T17:42:25.616Z,20.44
2018-09-15T17:44:54.395Z,20.31
2018-09-15T17:47:23.426Z,20.20
2018-09-15T17:49:52.225Z,20.13
2018-09-15T17:52:20.950Z,20.16
2018-09-15T17:54:49.880Z,20.08
2018-09-15T17:57:19.092Z,20.16
2018-09-15T17:59:47.818Z,20.26
2018-09-15T18:02:16.605Z,20.15
2018-09-15T18:04:45.676Z,20.22
2018-09-15T18:07:14.978Z,20.31
2018-09-15T18:09:44.218Z,20.32
2018-09-15T18:12:12.847Z,20.26
2018-09-15T18:14:41.624Z,20.41
2018-09-15T18:17:10.398Z,20.33
2018-09-15T18:19:39.282Z,20.23
2018-09-15T18:22:08.170Z,20.20
2018-09-15T18:24:36.951Z,20.25
2018-09-15T18:27:05.735Z,20.27
2018-09-15T18:29:34.504Z,20.33
2018-09-15T18:32:03.283Z,20.27
2018-09-15T18:34:31.969Z,20.26
2018-09-15T18:37:00.923Z,20.23
2018-09-15T18:39:29.578Z,20.28
2018-09-15T18:41:58.322Z,20.27
2018-09-15T18:44:28.288Z,20.25
2018-09-15T18:46:57.140Z,20.29
2018-09-15T18:49:25.935Z,20.22
2018-09-15T18:51:54.636Z,20.25
2018-09-15T18:54:23.499Z,20.29
2018-09-15T18:56:52.289Z,20.17
2018-09-15T18:59:21.075Z,20.02
2018-09-15T19:01:49.921Z,20.02
2018-09-15T19:04:18.675Z,19.93
2018-09-15T19:06:47.481Z,19.88
2018-09-15T19:09:16.310Z,19.85
2018-09-15T19:11:45.064Z,19.80
2018-09-15T19:14:13.893Z,19.86
2018-09-15T19:16:42.694Z,19.66
2018-09-15T19:19:11.456Z,19.65
2018-09-15T19:21:40.262Z,19.51
2018-09-15T19:24:09.055Z,19.57
2018-09-15T19:26:37.849Z,19.43
2018-09-15T19:29:06.718Z,19.36
2018-09-15T19:31:35.423Z,19.23
2018-09-15T19:34:04.182Z,19.15
2018-09-15T19:36:33.218Z,19.11
2018-09-15T19:39:01.936Z,19.10
2018-09-15T19:41:32.395Z,19.09
2018-09-15T19:44:01.135Z,19.24
2018-09-15T19:46:29.858Z,19.38
2018-09-15T19:48:58.610Z,19.36
2018-09-15T19:51:27.322Z,19.39
2018-09-15T19:53:56.072Z,19.31
2018-09-15T19:56:24.855Z,19.21
2018-09-15T19:58:53.668Z,19.33
2018-09-15T20:01:22.391Z,19.36
2018-09-15T20:03:51.187Z,19.45
2018-09-15T20:06:19.926Z,19.56
2018-09-15T20:08:48.654Z,19.58
2018-09-15T20:11:17.548Z,19.52
2018-09-15T20:13:46.281Z,19.55
2018-09-15T20:16:13.669Z,19.53
2018-09-15T20:18:41.022Z,19.38
2018-09-15T20:21:08.409Z,19.25
2018-09-15T20:23:37.304Z,19.16
2018-09-15T20:26:06.078Z,19.06
2018-09-15T20:28:35.065Z,19.02
2018-09-15T20:31:03.791Z,18.95
2018-09-15T20:33:32.565Z,18.94
2018-09-15T20:36:01.350Z,18.92
2018-09-15T20:38:30.183Z,18.90
2018-09-15T20:40:58.951Z,18.94
2018-09-15T20:43:27.744Z,18.91
2018-09-15T20:45:56.506Z,18.91
2018-09-15T20:48:25.232Z,18.91
2018-09-15T20:50:53.935Z,18.91
2018-09-15T20:53:22.682Z,18.92
2018-09-15T20:55:51.374Z,19.01
2018-09-15T20:58:20.053Z,19.00
2018-09-15T21:00:48.910Z,18.99
2018-09-15T21:03:17.645Z,18.96
2018-09-15T21:05:46.498Z,18.98
2018-09-15T21:08:15.248Z,18.88
2018-09-15T21:10:43.976Z,18.76
2018-09-15T21:13:12.746Z,18.69
2018-09-15T21:15:41.476Z,18.66
2018-09-15T21:18:10.263Z,18.64
2018-09-15T21:20:39.190Z,18.63
2018-09-15T21:23:08.018Z,18.62
2018-09-15T21:25:36.818Z,18.64
2018-09-15T21:28:06.348Z,18.63
2018-09-15T21:30:35.144Z,18.69
2018-09-15T21:33:03.927Z,18.78
2018-09-15T21:35:32.639Z,18.80
2018-09-15T21:38:01.401Z,18.96
2018-09-15T21:40:30.091Z,18.88
2018-09-15T21:42:58.858Z,18.87
2018-09-15T21:45:27.609Z,18.94
2018-09-15T21:47:56.371Z,18.95
2018-09-15T21:50:25.073Z,18.99
2018-09-15T21:52:53.905Z,19.12
2018-09-15T21:55:22.753Z,19.29
2018-09-15T21:57:51.529Z,19.29
2018-09-15T22:00:20.334Z,19.25
2018-09-15T22:02:55.351Z,19.13
2018-09-15T22:05:24.047Z,19.02
2018-09-15T22:07:52.852Z,18.80
2018-09-15T22:10:21.640Z,18.74
2018-09-15T22:12:50.351Z,18.66
2018-09-15T22:15:29.306Z,18.55
2018-09-15T22:17:59.051Z,18.39
2018-09-15T22:20:28.034Z,18.36
2018-09-15T22:23:03.442Z,18.21
2018-09-15T22:25:32.144Z,18.13
2018-09-15T22:28:00.931Z,18.12
2018-09-15T22:30:29.641Z,18.21
2018-09-15T22:32:58.384Z,18.22
2018-09-15T22:35:27.125Z,18.10
2018-09-15T22:37:55.877Z,18.22
2018-09-15T22:40:24.641Z,18.38
2018-09-15T22:42:53.449Z,18.38
2018-09-15T22:45:22.154Z,18.46
2018-09-15T22:47:50.920Z,18.56
2018-09-15T22:50:19.747Z,18.69
2018-09-15T22:52:48.734Z,18.83
2018-09-15T22:55:17.465Z,18.94
2018-09-15T22:57:46.526Z,18.81
2018-09-15T23:02:49.617Z,18.60
2018-09-15T23:05:18.374Z,18.48
2018-09-15T23:07:47.314Z,18.31
2018-09-15T23:10:16.027Z,18.23
2018-09-15T23:12:44.748Z,18.19
2018-09-15T23:15:13.468Z,18.25
2018-09-15T23:17:42.213Z,18.12
2018-09-15T23:20:10.942Z,18.24
2018-09-15T23:22:39.644Z,18.19
2018-09-15T23:25:08.350Z,18.22
2018-09-15T23:27:37.097Z,18.18
2018-09-15T23:30:06.234Z,18.15
2018-09-15T23:32:34.953Z,18.03
2018-09-15T23:35:04.954Z,17.99
2018-09-15T23:37:33.705Z,18.05
2018-09-15T23:40:02.407Z,18.01
2018-09-15T23:42:31.155Z,18.11
2018-09-15T23:44:59.900Z,18.12
2018-09-15T23:47:28.636Z,18.03
2018-09-15T23:49:57.362Z,18.03
2018-09-15T23:52:26.124Z,17.98
2018-09-15T23:54:54.875Z,17.84
2018-09-15T23:57:23.558Z,17.93
2018-09-15T23:59:52.394Z,17.89
